createdAt,value
2019-05-10T11:18:53.114Z,1001.78
2019-05-10T11:19:41.814Z,1001.74
2019-05-10T11:28:44.201Z,1001.78
2019-05-10T11:29:42.778Z,1001.81
2019-05-10T11:31:14.970Z,1001.86
2019-05-10T11:32:16.783Z,1001.85
2019-05-10T11:33:53.614Z,1001.91
2019-05-10T11:34:49.135Z,1001.88
2019-05-10T11:36:21.142Z,1001.90
2019-05-10T11:37:30.876Z,1001.86
2019-05-10T11:38:58.578Z,1001.90
2019-05-10T11:39:53.636Z,1001.82
2019-05-10T11:41:24.720Z,1001.83
2019-05-10T11:42:24.415Z,1001.84
2019-05-10T11:43:57.941Z,1001.81
2019-05-10T11:44:57.353Z,1001.87
2019-05-10T11:46:28.943Z,1001.84
2019-05-10T11:47:28.069Z,1001.84
2019-05-10T11:49:01.750Z,1001.85
2019-05-10T11:50:06.073Z,1001.76
2019-05-10T11:51:32.698Z,1001.80
2019-05-10T11:52:34.813Z,1001.72
2019-05-10T11:54:05.464Z,1001.74
2019-05-10T11:55:05.423Z,1001.74
2019-05-10T11:56:37.221Z,1001.79
2019-05-10T11:57:43.599Z,1001.79
2019-05-10T11:59:15.917Z,1001.74
2019-05-10T12:01:42.787Z,1001.79
2019-05-10T12:03:01.501Z,1001.83
2019-05-10T12:04:24.046Z,1001.79
2019-05-10T12:05:20.503Z,1001.78
2019-05-10T12:06:16.511Z,1001.87
2019-05-10T12:07:15.504Z,1001.75
2019-05-10T12:08:15.495Z,1001.86
2019-05-10T12:09:15.488Z,1001.86
2019-05-10T12:10:20.980Z,1001.86
2019-05-10T12:11:27.481Z,1001.82
2019-05-10T12:12:16.447Z,1001.85
2019-05-10T12:13:19.858Z,1001.89
2019-05-10T12:14:16.431Z,1001.92
2019-05-10T12:15:15.411Z,1001.90
2019-05-10T12:16:16.864Z,1001.96
2019-05-10T12:17:15.407Z,1001.92
2019-05-10T12:18:15.408Z,1001.93
2019-05-10T12:19:20.724Z,1001.97
2019-05-10T12:20:16.833Z,1001.92
2019-05-10T12:21:15.350Z,1002.01
2019-05-10T12:22:16.094Z,1002.03
2019-05-10T12:23:22.798Z,1002.11
2019-05-10T12:24:33.965Z,1002.13
2019-05-10T12:25:36.001Z,1002.13
2019-05-10T12:25:59.686Z,1001.77
2019-05-10T12:27:14.028Z,1002.16
2019-05-10T12:27:24.768Z,1002.25
2019-05-10T12:28:24.070Z,1002.22
2019-05-10T12:29:17.298Z,1002.32
2019-05-10T12:30:16.030Z,1002.35
2019-05-10T12:31:16.884Z,1002.29
2019-05-10T12:32:15.225Z,1002.44
2019-05-10T12:33:23.873Z,1002.30
2019-05-10T12:34:16.212Z,1002.38
2019-05-10T12:35:15.194Z,1002.45
2019-05-10T12:36:23.619Z,1002.45
2019-05-10T12:37:16.185Z,1002.47
2019-05-10T12:38:15.175Z,1002.45
2019-05-10T12:39:15.145Z,1002.48
2019-05-10T12:40:15.552Z,1002.53
2019-05-10T12:41:15.126Z,1002.52
2019-05-10T12:42:15.113Z,1002.53
2019-05-10T12:43:15.107Z,1002.53
2019-05-10T12:44:15.090Z,1002.53
2019-05-10T12:45:15.085Z,1002.53
2019-05-10T12:46:15.064Z,1002.54
2019-05-10T12:47:15.068Z,1002.52
2019-05-10T12:48:15.178Z,1002.51
2019-05-10T12:49:15.034Z,1002.53
2019-05-10T12:50:15.028Z,1002.47
2019-05-10T12:51:16.220Z,1002.44
2019-05-10T12:52:16.230Z,1002.44
2019-05-10T12:53:18.358Z,1002.47
2019-05-10T12:54:18.419Z,1002.48
2019-05-10T12:55:15.964Z,1002.47
2019-05-10T12:56:15.027Z,1002.51
2019-05-10T12:57:15.027Z,1002.51
2019-05-10T12:58:14.960Z,1002.54
2019-05-10T12:59:14.931Z,1002.43
2019-05-10T13:00:15.935Z,1002.52
2019-05-10T13:01:14.992Z,1002.52
2019-05-10T13:02:14.891Z,1002.58
2019-05-10T13:03:14.878Z,1002.59
2019-05-10T13:04:17.023Z,1002.55
2019-05-10T13:05:15.770Z,1002.57
2019-05-10T13:06:14.847Z,1002.56
2019-05-10T13:07:14.840Z,1002.63
2019-05-10T13:08:14.828Z,1002.65
2019-05-10T13:09:14.961Z,1002.61
2019-05-10T13:10:14.865Z,1002.59
2019-05-10T13:11:19.194Z,1002.65
2019-05-10T13:12:15.783Z,1002.62
2019-05-10T13:13:17.661Z,1002.64
2019-05-10T13:14:15.756Z,1002.64
2019-05-10T13:15:14.772Z,1002.67
2019-05-10T13:16:14.751Z,1002.69
2019-05-10T13:17:17.021Z,1002.69
2019-05-10T13:18:14.737Z,1002.66
2019-05-10T13:19:20.167Z,1002.74
2019-05-10T13:20:15.699Z,1002.75
2019-05-10T13:21:21.053Z,1002.77
2019-05-10T13:22:15.665Z,1002.74
2019-05-10T13:23:16.086Z,1002.73
2019-05-10T13:24:14.651Z,1002.82
2019-05-10T13:25:14.652Z,1002.75
2019-05-10T13:26:14.624Z,1002.79
2019-05-10T13:27:14.615Z,1002.78
2019-05-10T13:28:14.607Z,1002.79
2019-05-10T13:29:14.647Z,1002.76
2019-05-10T13:30:14.617Z,1002.76
2019-05-10T13:31:15.289Z,1002.78
2019-05-10T13:32:20.118Z,1002.78
2019-05-10T13:33:27.867Z,1002.82
2019-05-10T13:34:15.540Z,1002.82
2019-05-10T13:35:14.534Z,1002.74
2019-05-10T13:36:14.692Z,1002.81
2019-05-10T13:37:23.241Z,1002.84
2019-05-10T13:38:15.489Z,1002.77
2019-05-10T13:39:19.232Z,1002.87
2019-05-10T13:40:15.454Z,1002.88
2019-05-10T13:41:17.793Z,1002.85
2019-05-10T13:42:15.531Z,1002.91
2019-05-10T13:43:16.697Z,1002.92
2019-05-10T13:44:15.422Z,1002.90
2019-05-10T13:45:14.410Z,1002.96
2019-05-10T13:46:14.396Z,1002.91
2019-05-10T13:47:14.452Z,1002.89
2019-05-10T13:48:14.374Z,1002.83
2019-05-10T13:49:14.379Z,1002.82
2019-05-10T13:50:14.558Z,1002.89
2019-05-10T13:51:14.368Z,1002.89
2019-05-10T13:52:14.384Z,1002.83
2019-05-10T13:53:21.338Z,1002.83
2019-05-10T13:54:15.409Z,1002.94
2019-05-10T13:55:14.307Z,1002.91
2019-05-10T13:56:14.290Z,1002.94
2019-05-10T13:57:14.290Z,1002.94
2019-05-10T13:58:14.276Z,1002.98
2019-05-10T13:59:16.414Z,1002.95
2019-05-10T14:00:14.579Z,1002.87
2019-05-10T14:01:14.851Z,1002.89
2019-05-10T14:02:14.214Z,1002.93
2019-05-10T14:03:16.705Z,1002.92
2019-05-10T14:04:14.194Z,1002.97
2019-05-10T14:05:17.584Z,1002.94
2019-05-10T14:06:15.172Z,1002.93
2019-05-10T14:07:14.160Z,1002.94
2019-05-10T14:08:14.184Z,1002.95
2019-05-10T14:09:14.149Z,1002.95
2019-05-10T14:10:18.240Z,1002.97
2019-05-10T14:11:15.119Z,1002.93
2019-05-10T14:12:16.183Z,1002.94
2019-05-10T14:13:16.896Z,1002.99
2019-05-10T14:14:14.629Z,1002.98
2019-05-10T14:15:15.154Z,1003.05
2019-05-10T14:16:19.507Z,1003.02
2019-05-10T14:17:15.050Z,1003.05
2019-05-10T14:18:14.049Z,1002.96
2019-05-10T14:19:15.887Z,1002.98
2019-05-10T14:20:30.360Z,1003.00
2019-05-10T14:21:15.010Z,1002.98
2019-05-10T14:22:14.014Z,1003.00
2019-05-10T14:23:17.562Z,1002.98
2019-05-10T14:24:15.088Z,1003.03
2019-05-10T14:25:13.971Z,1003.10
2019-05-10T14:26:15.878Z,1003.08
2019-05-10T14:27:13.939Z,1003.03
2019-05-10T14:28:15.597Z,1003.00
2019-05-10T14:29:13.917Z,1003.07
2019-05-10T14:30:16.078Z,1003.05
2019-05-10T14:31:13.896Z,1003.04
2019-05-10T14:32:13.920Z,1003.03
2019-05-10T14:33:14.764Z,1002.97
2019-05-10T14:34:15.604Z,1003.02
2019-05-10T14:35:16.421Z,1003.04
2019-05-10T14:36:14.867Z,1002.99
2019-05-10T14:37:19.205Z,1002.97
2019-05-10T14:38:14.813Z,1002.98
2019-05-10T14:39:13.812Z,1002.93
2019-05-10T14:40:17.030Z,1002.97
2019-05-10T14:41:14.793Z,1002.86
2019-05-10T14:42:13.773Z,1002.96
2019-05-10T14:43:13.765Z,1002.89
2019-05-10T14:44:13.749Z,1002.96
2019-05-10T14:45:13.832Z,1003.01
2019-05-10T14:46:14.129Z,1002.94
2019-05-10T14:47:13.846Z,1002.98
2019-05-10T14:48:13.710Z,1003.03
2019-05-10T14:49:13.700Z,1002.98
2019-05-10T14:50:19.477Z,1003.00
2019-05-10T14:51:14.780Z,1003.04
2019-05-10T14:52:13.661Z,1003.04
2019-05-10T14:53:13.649Z,1003.08
2019-05-10T14:54:13.691Z,1003.07
2019-05-10T14:55:13.729Z,1003.02
2019-05-10T14:56:15.223Z,1003.11
2019-05-10T14:57:13.606Z,1003.12
2019-05-10T14:58:13.779Z,1003.06
2019-05-10T14:59:13.581Z,1003.09
2019-05-10T15:00:13.648Z,1003.05
2019-05-10T15:01:13.570Z,1003.10
2019-05-10T15:02:16.947Z,1003.11
2019-05-10T15:03:14.549Z,1003.14
2019-05-10T15:04:20.293Z,1003.14
2019-05-10T15:05:18.025Z,1003.22
2019-05-10T15:06:13.507Z,1003.16
2019-05-10T15:07:14.261Z,1003.15
2019-05-10T15:08:13.507Z,1003.22
2019-05-10T15:09:22.085Z,1003.25
2019-05-10T15:10:14.462Z,1003.23
2019-05-10T15:11:13.446Z,1003.22
2019-05-10T15:12:15.893Z,1003.29
2019-05-10T15:13:19.801Z,1003.28
2019-05-10T15:14:14.454Z,1003.33
2019-05-10T15:15:13.399Z,1003.30
2019-05-10T15:16:26.088Z,1003.44
2019-05-10T15:17:14.377Z,1003.39
2019-05-10T15:18:13.384Z,1003.36
2019-05-10T15:19:13.372Z,1003.37
2019-05-10T15:20:13.346Z,1003.35
2019-05-10T15:21:13.346Z,1003.39
2019-05-10T15:22:18.443Z,1003.39
2019-05-10T15:23:14.319Z,1003.42
2019-05-10T15:24:13.313Z,1003.51
2019-05-10T15:25:13.300Z,1003.56
2019-05-10T15:26:13.362Z,1003.75
2019-05-10T15:27:16.129Z,1003.55
2019-05-10T15:28:14.385Z,1003.64
2019-05-10T15:29:14.776Z,1003.67
2019-05-10T15:30:14.250Z,1003.68
2019-05-10T15:31:13.241Z,1003.72
2019-05-10T15:32:13.244Z,1003.82
2019-05-10T15:33:13.302Z,1003.73
2019-05-10T15:34:13.193Z,1003.88
2019-05-10T15:35:13.175Z,1003.74
2019-05-10T15:36:13.182Z,1003.75
2019-05-10T15:37:13.164Z,1003.84
2019-05-10T15:38:13.168Z,1003.79
2019-05-10T15:39:13.134Z,1003.76
2019-05-10T15:40:13.122Z,1003.81
2019-05-10T15:41:16.884Z,1003.84
2019-05-10T15:42:14.146Z,1003.79
2019-05-10T15:43:17.359Z,1003.83
2019-05-10T15:44:14.084Z,1003.81
2019-05-10T15:45:14.665Z,1003.88
2019-05-10T15:46:13.054Z,1003.87
2019-05-10T15:47:20.419Z,1003.83
2019-05-10T15:48:14.032Z,1003.80
2019-05-10T15:49:13.604Z,1003.80
2019-05-10T15:50:14.013Z,1003.79
2019-05-10T15:51:16.937Z,1003.79
2019-05-10T15:52:18.081Z,1003.86
2019-05-10T15:53:12.991Z,1003.92
2019-05-10T15:54:12.988Z,1003.95
2019-05-10T15:55:16.465Z,1003.95
2019-05-10T15:56:13.945Z,1003.89
2019-05-10T15:57:14.593Z,1003.86
2019-05-10T15:58:13.944Z,1003.93
2019-05-10T15:59:18.770Z,1003.88
2019-05-10T16:00:14.032Z,1004.12
2019-05-10T16:01:14.415Z,1004.06
2019-05-10T16:02:12.877Z,1003.93
2019-05-10T16:03:12.875Z,1004.07
2019-05-10T16:04:12.964Z,1004.07
2019-05-10T16:05:24.089Z,1004.28
2019-05-10T16:06:13.939Z,1004.10
2019-05-10T16:07:14.547Z,1004.12
2019-05-10T16:08:13.706Z,1003.99
2019-05-10T16:09:17.491Z,1004.16
2019-05-10T16:10:13.783Z,1004.24
2019-05-10T16:11:18.888Z,1004.16
2019-05-10T16:12:13.761Z,1004.08
2019-05-10T16:13:14.509Z,1004.21
2019-05-10T16:14:13.743Z,1004.23
2019-05-10T16:15:19.342Z,1004.21
2019-05-10T16:16:13.714Z,1004.23
2019-05-10T16:17:17.585Z,1004.23
2019-05-10T16:18:13.695Z,1004.23
2019-05-10T16:19:17.931Z,1004.22
2019-05-10T16:20:13.680Z,1004.21
2019-05-10T16:21:15.133Z,1004.26
2019-05-10T16:22:12.646Z,1004.34
2019-05-10T16:23:12.647Z,1004.30
2019-05-10T16:24:13.640Z,1004.25
2019-05-10T16:25:12.615Z,1004.21
2019-05-10T16:26:17.397Z,1004.30
2019-05-10T16:27:13.594Z,1004.33
2019-05-10T16:28:15.366Z,1004.36
2019-05-10T16:29:13.579Z,1004.46
2019-05-10T16:30:17.859Z,1004.31
2019-05-10T16:31:13.549Z,1004.40
2019-05-10T16:32:12.533Z,1004.37
2019-05-10T16:33:15.740Z,1004.42
2019-05-10T16:34:12.525Z,1004.46
2019-05-10T16:35:14.542Z,1004.44
2019-05-10T16:36:12.493Z,1004.44
2019-05-10T16:37:12.497Z,1004.37
2019-05-10T16:38:12.501Z,1004.41
2019-05-10T16:39:12.491Z,1004.65
2019-05-10T16:40:12.451Z,1004.51
2019-05-10T16:41:12.478Z,1004.57
2019-05-10T16:42:12.429Z,1004.45
2019-05-10T16:43:13.995Z,1004.54
2019-05-10T16:44:12.435Z,1004.55
2019-05-10T16:45:12.405Z,1004.48
2019-05-10T16:46:12.455Z,1004.66
2019-05-10T16:47:12.382Z,1004.50
2019-05-10T16:48:12.362Z,1004.46
2019-05-10T16:49:15.497Z,1004.46
2019-05-10T16:50:12.372Z,1004.55
2019-05-10T16:51:12.713Z,1004.44
2019-05-10T16:52:12.492Z,1004.49
2019-05-10T16:53:12.302Z,1004.54
2019-05-10T16:54:13.582Z,1004.52
2019-05-10T16:55:12.291Z,1004.48
2019-05-10T16:56:13.415Z,1004.52
2019-05-10T16:57:13.271Z,1004.59
2019-05-10T16:58:15.287Z,1004.51
2019-05-10T16:59:13.347Z,1004.56
2019-05-10T17:00:12.222Z,1004.59
2019-05-10T17:01:12.336Z,1004.56
2019-05-10T17:02:12.211Z,1004.69
2019-05-10T17:03:13.230Z,1004.57
2019-05-10T17:04:13.338Z,1004.66
2019-05-10T17:05:15.090Z,1004.63
2019-05-10T17:06:12.162Z,1004.66
2019-05-10T17:07:18.139Z,1004.64
2019-05-10T17:08:13.131Z,1004.80
2019-05-10T17:09:18.348Z,1004.80
2019-05-10T17:10:13.113Z,1004.72
2019-05-10T17:11:12.109Z,1004.77
2019-05-10T17:12:12.100Z,1004.76
2019-05-10T17:13:12.087Z,1004.74
2019-05-10T17:14:12.566Z,1004.78
2019-05-10T17:15:13.065Z,1004.75
2019-05-10T17:16:17.210Z,1004.80
2019-05-10T17:17:13.087Z,1004.87
2019-05-10T17:18:17.167Z,1004.83
2019-05-10T17:19:13.084Z,1004.84
2019-05-10T17:20:14.789Z,1004.81
2019-05-10T17:21:11.995Z,1004.81
2019-05-10T17:22:11.984Z,1004.92
2019-05-10T17:23:11.969Z,1004.94
2019-05-10T17:24:11.963Z,1004.98
2019-05-10T17:25:11.951Z,1004.95
2019-05-10T17:26:11.973Z,1004.92
2019-05-10T17:27:11.936Z,1004.91
2019-05-10T17:28:11.919Z,1005.01
2019-05-10T17:29:12.481Z,1005.03
2019-05-10T17:30:11.892Z,1004.99
2019-05-10T17:31:11.920Z,1005.02
2019-05-10T17:32:11.924Z,1005.02
2019-05-10T17:33:11.984Z,1005.10
2019-05-10T17:34:22.146Z,1005.09
2019-05-10T17:35:12.835Z,1005.11
2019-05-10T17:36:14.554Z,1005.14
2019-05-10T17:37:12.848Z,1005.15
2019-05-10T17:38:14.052Z,1005.12
2019-05-10T17:39:11.792Z,1005.20
2019-05-10T17:40:12.289Z,1005.24
2019-05-10T17:41:11.775Z,1005.15
2019-05-10T17:42:11.758Z,1005.29
2019-05-10T17:43:14.162Z,1005.18
2019-05-10T17:44:17.494Z,1005.16
2019-05-10T17:45:12.737Z,1005.24
2019-05-10T17:46:12.676Z,1005.23
2019-05-10T17:47:12.802Z,1005.30
2019-05-10T17:48:11.828Z,1005.28
2019-05-10T17:49:11.697Z,1005.20
2019-05-10T17:50:11.795Z,1005.35
2019-05-10T17:51:11.711Z,1005.22
2019-05-10T17:52:11.703Z,1005.21
2019-05-10T17:53:11.637Z,1005.32
2019-05-10T17:54:11.621Z,1005.26
2019-05-10T17:55:16.880Z,1005.30
2019-05-10T17:56:12.600Z,1005.24
2019-05-10T17:57:16.734Z,1005.32
2019-05-10T17:58:12.574Z,1005.26
2019-05-10T17:59:13.771Z,1005.30
2019-05-10T18:00:11.563Z,1005.31
2019-05-10T18:01:11.541Z,1005.32
2019-05-10T18:02:11.557Z,1005.39
2019-05-10T18:03:11.529Z,1005.32
2019-05-10T18:04:11.507Z,1005.35
2019-05-10T18:05:11.501Z,1005.38
2019-05-10T18:06:22.936Z,1005.39
2019-05-10T18:07:12.475Z,1005.39
2019-05-10T18:08:11.467Z,1005.47
2019-05-10T18:09:11.499Z,1005.41
2019-05-10T18:10:11.445Z,1005.40
2019-05-10T18:11:11.573Z,1005.39
2019-05-10T18:12:15.657Z,1005.45
2019-05-10T18:13:12.411Z,1005.45
2019-05-10T18:14:12.463Z,1005.43
2019-05-10T18:15:12.390Z,1005.52
2019-05-10T18:16:11.376Z,1005.56
2019-05-10T18:17:11.405Z,1005.62
2019-05-10T18:18:11.349Z,1005.57
2019-05-10T18:19:11.336Z,1005.59
2019-05-10T18:20:11.328Z,1005.68
2019-05-10T18:21:15.973Z,1005.63
2019-05-10T18:22:12.305Z,1005.63
2019-05-10T18:23:20.115Z,1005.67
2019-05-10T18:24:12.297Z,1005.68
2019-05-10T18:25:19.558Z,1005.67
2019-05-10T18:26:12.258Z,1005.67
2019-05-10T18:27:11.263Z,1005.70
2019-05-10T18:28:11.262Z,1005.72
2019-05-10T18:29:11.224Z,1005.72
2019-05-10T18:30:11.225Z,1005.72
2019-05-10T18:31:11.309Z,1005.79
2019-05-10T18:32:11.327Z,1005.94
2019-05-10T18:33:12.281Z,1005.88
2019-05-10T18:34:11.180Z,1005.90
2019-05-10T18:35:14.434Z,1005.85
2019-05-10T18:36:12.149Z,1005.91
2019-05-10T18:37:15.760Z,1005.86
2019-05-10T18:38:12.138Z,1005.90
2019-05-10T18:39:15.525Z,1005.96
2019-05-10T18:40:12.099Z,1005.96
2019-05-10T18:41:11.825Z,1005.92
2019-05-10T18:42:11.080Z,1005.91
2019-05-10T18:43:11.074Z,1005.99
2019-05-10T18:44:14.323Z,1006.06
2019-05-10T18:45:11.044Z,1005.97
2019-05-10T18:46:11.035Z,1005.94
2019-05-10T18:47:11.024Z,1005.98
2019-05-10T18:48:11.040Z,1005.95
2019-05-10T18:49:11.012Z,1006.00
2019-05-10T18:50:10.988Z,1005.98
2019-05-10T18:51:11.000Z,1005.95
2019-05-10T18:52:11.020Z,1006.03
2019-05-10T18:53:11.045Z,1006.08
2019-05-10T18:54:10.961Z,1006.10
2019-05-10T18:55:10.930Z,1006.05
2019-05-10T18:56:10.937Z,1006.02
2019-05-10T18:57:15.554Z,1006.03
2019-05-10T18:58:11.917Z,1006.05
2019-05-10T18:59:10.895Z,1006.08
2019-05-10T19:00:10.946Z,1006.12
2019-05-10T19:01:10.870Z,1006.14
2019-05-10T19:02:11.724Z,1006.12
2019-05-10T19:03:11.841Z,1006.22
2019-05-10T19:04:14.234Z,1006.16
2019-05-10T19:05:13.421Z,1006.14
2019-05-10T19:06:13.060Z,1006.21
2019-05-10T19:07:10.806Z,1006.19
2019-05-10T19:08:10.795Z,1006.23
2019-05-10T19:09:10.779Z,1006.24
2019-05-10T19:10:10.771Z,1006.27
2019-05-10T19:11:10.797Z,1006.27
2019-05-10T19:12:18.005Z,1006.24
2019-05-10T19:13:12.017Z,1006.27
2019-05-10T19:14:10.758Z,1006.35
2019-05-10T19:15:15.400Z,1006.27
2019-05-10T19:16:11.734Z,1006.34
2019-05-10T19:17:11.133Z,1006.33
2019-05-10T19:18:10.696Z,1006.39
2019-05-10T19:19:10.674Z,1006.39
2019-05-10T19:20:16.013Z,1006.43
2019-05-10T19:21:11.648Z,1006.48
2019-05-10T19:22:10.639Z,1006.42
2019-05-10T19:23:13.068Z,1006.46
2019-05-10T19:24:11.617Z,1006.40
2019-05-10T19:25:12.143Z,1006.44
2019-05-10T19:26:10.593Z,1006.41
2019-05-10T19:27:10.579Z,1006.44
2019-05-10T19:28:10.567Z,1006.46
2019-05-10T19:29:10.558Z,1006.51
2019-05-10T19:30:10.565Z,1006.49
2019-05-10T19:31:10.613Z,1006.54
2019-05-10T19:32:17.904Z,1006.49
2019-05-10T19:33:11.551Z,1006.57
2019-05-10T19:34:15.207Z,1006.55
2019-05-10T19:35:11.510Z,1006.57
2019-05-10T19:36:13.162Z,1006.53
2019-05-10T19:37:10.476Z,1006.54
2019-05-10T19:38:10.481Z,1006.51
2019-05-10T19:39:10.459Z,1006.54
2019-05-10T19:40:10.494Z,1006.53
2019-05-10T19:41:10.423Z,1006.51
2019-05-10T19:42:10.427Z,1006.54
2019-05-10T19:43:15.270Z,1006.53
2019-05-10T19:44:11.416Z,1006.54
2019-05-10T19:45:12.813Z,1006.63
2019-05-10T19:46:11.566Z,1006.55
2019-05-10T19:47:11.170Z,1006.56
2019-05-10T19:48:11.354Z,1006.61
2019-05-10T19:49:13.118Z,1006.55
2019-05-10T19:50:11.332Z,1006.58
2019-05-10T19:51:11.601Z,1006.57
2019-05-10T19:52:10.316Z,1006.62
2019-05-10T19:53:10.292Z,1006.66
2019-05-10T19:54:13.629Z,1006.62
2019-05-10T19:55:13.099Z,1006.68
2019-05-10T19:56:11.352Z,1006.66
2019-05-10T19:57:16.181Z,1006.63
2019-05-10T19:58:11.325Z,1006.62
2019-05-10T19:59:11.886Z,1006.60
2019-05-10T20:00:10.213Z,1006.61
2019-05-10T20:01:10.220Z,1006.67
2019-05-10T20:02:10.193Z,1006.60
2019-05-10T20:03:10.178Z,1006.60
2019-05-10T20:04:10.200Z,1006.64
2019-05-10T20:05:10.166Z,1006.59
2019-05-10T20:06:10.190Z,1006.62
2019-05-10T20:07:10.149Z,1006.66
2019-05-10T20:08:10.128Z,1006.63
2019-05-10T20:09:10.298Z,1006.62
2019-05-10T20:10:10.103Z,1006.68
2019-05-10T20:11:10.108Z,1006.61
2019-05-10T20:12:10.100Z,1006.71
2019-05-10T20:13:10.729Z,1006.64
2019-05-10T20:14:10.066Z,1006.65
2019-05-10T20:15:10.062Z,1006.65
2019-05-10T20:16:10.049Z,1006.66
2019-05-10T20:17:10.037Z,1006.69
2019-05-10T20:18:10.202Z,1006.73
2019-05-10T20:19:10.143Z,1006.70
2019-05-10T20:20:10.015Z,1006.73
2019-05-10T20:21:10.013Z,1006.70
2019-05-10T20:22:09.976Z,1006.73
2019-05-10T20:23:09.974Z,1006.72
2019-05-10T20:24:09.952Z,1006.73
2019-05-10T20:25:09.998Z,1006.78
2019-05-10T20:26:09.937Z,1006.74
2019-05-10T20:27:09.918Z,1006.79
2019-05-10T20:28:09.983Z,1006.78
2019-05-10T20:29:09.905Z,1006.76
2019-05-10T20:30:09.907Z,1006.81
2019-05-10T20:31:09.875Z,1006.83
2019-05-10T20:32:09.931Z,1006.80
2019-05-10T20:33:09.858Z,1006.87
2019-05-10T20:34:09.841Z,1006.86
2019-05-10T20:35:09.854Z,1006.91
2019-05-10T20:36:09.862Z,1006.85
2019-05-10T20:37:09.822Z,1006.84
2019-05-10T20:38:09.836Z,1006.85
2019-05-10T20:39:09.804Z,1006.82
2019-05-10T20:40:09.887Z,1006.89
2019-05-10T20:41:09.771Z,1006.82
2019-05-10T20:42:10.603Z,1006.84
2019-05-10T20:43:09.745Z,1006.90
2019-05-10T20:44:09.735Z,1006.95
2019-05-10T20:45:09.717Z,1006.97
2019-05-10T20:46:11.463Z,1006.97
2019-05-10T20:47:09.721Z,1007.01
2019-05-10T20:48:09.698Z,1006.98
2019-05-10T20:49:09.736Z,1006.96
2019-05-10T20:50:09.677Z,1006.96
2019-05-10T20:51:09.658Z,1006.92
2019-05-10T20:52:09.669Z,1006.92
2019-05-10T20:53:09.655Z,1006.98
2019-05-10T20:54:09.627Z,1006.97
2019-05-10T20:55:09.613Z,1006.94
2019-05-10T20:56:09.605Z,1006.99
2019-05-10T20:57:09.733Z,1007.00
2019-05-10T20:58:09.596Z,1007.02
2019-05-10T20:59:09.576Z,1007.01
2019-05-10T21:00:09.586Z,1006.95
2019-05-10T21:01:09.554Z,1006.91
2019-05-10T21:02:09.546Z,1006.89
2019-05-10T21:03:09.564Z,1006.99
2019-05-10T21:04:09.507Z,1006.92
2019-05-10T21:05:09.502Z,1006.95
2019-05-10T21:06:09.505Z,1006.89
2019-05-10T21:07:09.478Z,1006.92
2019-05-10T21:08:16.895Z,1006.97
2019-05-10T21:09:10.486Z,1006.94
2019-05-10T21:10:09.457Z,1006.96
2019-05-10T21:11:09.434Z,1006.94
2019-05-10T21:12:09.419Z,1006.84
2019-05-10T21:13:09.411Z,1006.91
2019-05-10T21:14:09.397Z,1006.86
2019-05-10T21:15:09.392Z,1006.84
2019-05-10T21:16:09.379Z,1006.87
2019-05-10T21:17:09.483Z,1006.90
2019-05-10T21:18:09.368Z,1006.90
2019-05-10T21:19:09.358Z,1006.90
2019-05-10T21:20:09.333Z,1006.92
2019-05-10T21:21:09.318Z,1006.92
2019-05-10T21:22:09.329Z,1006.98
2019-05-10T21:23:09.339Z,1006.97
2019-05-10T21:24:09.288Z,1006.94
2019-05-10T21:25:09.410Z,1006.92
2019-05-10T21:26:09.269Z,1006.98
2019-05-10T21:27:09.255Z,1006.92
2019-05-10T21:28:09.244Z,1006.99
2019-05-10T21:29:09.239Z,1006.99
2019-05-10T21:30:09.222Z,1006.98
2019-05-10T21:31:09.218Z,1006.98
2019-05-10T21:32:09.216Z,1007.00
2019-05-10T21:33:09.202Z,1007.02
2019-05-10T21:34:10.234Z,1007.05
2019-05-10T21:35:09.224Z,1007.00
2019-05-10T21:36:09.152Z,1006.94
2019-05-10T21:37:09.144Z,1007.03
2019-05-10T21:38:09.226Z,1006.97
2019-05-10T21:39:09.153Z,1007.02
2019-05-10T21:40:09.126Z,1007.04
2019-05-10T21:41:09.109Z,1007.09
2019-05-10T21:42:09.158Z,1007.04
2019-05-10T21:43:09.077Z,1007.05
2019-05-10T21:44:09.065Z,1007.06
2019-05-10T21:45:09.069Z,1007.00
2019-05-10T21:46:09.054Z,1007.07
2019-05-10T21:47:09.049Z,1007.05
2019-05-10T21:48:09.022Z,1007.00
2019-05-10T21:49:09.012Z,1007.04
2019-05-10T21:50:09.088Z,1007.00
2019-05-10T21:51:08.995Z,1006.97
2019-05-10T21:52:08.991Z,1006.93
2019-05-10T21:53:08.970Z,1006.98
2019-05-10T21:54:08.960Z,1006.89
2019-05-10T21:55:08.949Z,1006.95
2019-05-10T21:56:08.958Z,1006.99
2019-05-10T21:57:08.936Z,1006.96
2019-05-10T21:58:08.934Z,1007.01
2019-05-10T21:59:08.897Z,1007.00
2019-05-10T22:00:08.922Z,1006.97
2019-05-10T22:01:08.884Z,1007.00
2019-05-10T22:02:08.882Z,1007.02
2019-05-10T22:03:08.888Z,1007.00
2019-05-10T22:04:08.861Z,1007.06
2019-05-10T22:05:08.835Z,1007.02
2019-05-10T22:06:08.819Z,1007.06
2019-05-10T22:07:08.844Z,1007.08
2019-05-10T22:08:08.824Z,1007.01
2019-05-10T22:09:09.747Z,1007.05
2019-05-10T22:10:08.772Z,1007.03
2019-05-10T22:11:08.780Z,1007.00
2019-05-10T22:12:08.754Z,1007.02
2019-05-10T22:13:08.746Z,1007.03
2019-05-10T22:14:08.821Z,1007.06
2019-05-10T22:15:08.780Z,1007.04
2019-05-10T22:16:08.710Z,1007.12
2019-05-10T22:17:08.703Z,1007.05
2019-05-10T22:18:08.688Z,1007.08
2019-05-10T22:19:08.689Z,1007.12
2019-05-10T22:20:08.669Z,1007.09
2019-05-10T22:21:08.700Z,1007.09
2019-05-10T22:22:08.646Z,1007.07
2019-05-10T22:23:08.641Z,1007.09
2019-05-10T22:24:08.630Z,1007.15
2019-05-10T22:25:08.612Z,1007.14
2019-05-10T22:26:08.605Z,1007.15
2019-05-10T22:27:08.587Z,1007.17
2019-05-10T22:28:08.573Z,1007.14
2019-05-10T22:29:08.564Z,1007.17
2019-05-10T22:30:11.984Z,1007.20
2019-05-10T22:31:08.568Z,1007.16
2019-05-10T22:32:08.561Z,1007.21
2019-05-10T22:33:08.519Z,1007.24
2019-05-10T22:34:08.512Z,1007.24
2019-05-10T22:35:08.543Z,1007.26
2019-05-10T22:36:08.498Z,1007.31
2019-05-10T22:37:08.479Z,1007.34
2019-05-10T22:38:08.467Z,1007.31
2019-05-10T22:39:08.460Z,1007.34
2019-05-10T22:40:08.455Z,1007.37
2019-05-10T22:41:08.430Z,1007.40
2019-05-10T22:42:08.426Z,1007.32
2019-05-10T22:43:08.419Z,1007.38
2019-05-10T22:44:08.397Z,1007.45
2019-05-10T22:45:08.389Z,1007.34
2019-05-10T22:46:08.381Z,1007.44
2019-05-10T22:47:08.370Z,1007.38
2019-05-10T22:48:08.359Z,1007.43
2019-05-10T22:49:08.343Z,1007.37
2019-05-10T22:50:08.384Z,1007.38
2019-05-10T22:51:15.309Z,1007.35
2019-05-10T22:52:08.334Z,1007.36
2019-05-10T22:53:08.306Z,1007.34
2019-05-10T22:54:08.479Z,1007.34
2019-05-10T22:55:08.403Z,1007.42
2019-05-10T22:56:08.310Z,1007.36
2019-05-10T22:57:08.286Z,1007.39
2019-05-10T22:58:08.654Z,1007.45
2019-05-10T22:59:08.513Z,1007.48
2019-05-10T23:00:08.227Z,1007.44
2019-05-10T23:01:08.252Z,1007.47
2019-05-10T23:02:08.200Z,1007.48
2019-05-10T23:03:08.374Z,1007.43
2019-05-10T23:04:08.175Z,1007.48
2019-05-10T23:05:08.266Z,1007.46
2019-05-10T23:06:08.149Z,1007.46
2019-05-10T23:07:08.140Z,1007.42
2019-05-10T23:08:08.128Z,1007.45
2019-05-10T23:09:23.622Z,1007.41
2019-05-10T23:10:09.140Z,1007.43
2019-05-10T23:11:08.104Z,1007.43
2019-05-10T23:12:08.087Z,1007.38
2019-05-10T23:13:08.074Z,1007.41
2019-05-10T23:14:08.065Z,1007.40
2019-05-10T23:15:08.073Z,1007.38
2019-05-10T23:16:08.098Z,1007.39
2019-05-10T23:17:08.070Z,1007.36
2019-05-10T23:18:08.023Z,1007.37
2019-05-10T23:19:08.006Z,1007.33
2019-05-10T23:20:08.006Z,1007.34
2019-05-10T23:21:08.042Z,1007.40
2019-05-10T23:22:07.986Z,1007.44
2019-05-10T23:23:07.968Z,1007.37
2019-05-10T23:24:07.968Z,1007.42
2019-05-10T23:25:07.956Z,1007.45
2019-05-10T23:26:08.634Z,1007.48
2019-05-10T23:27:07.941Z,1007.52
2019-05-10T23:28:07.918Z,1007.54
2019-05-10T23:29:07.899Z,1007.57
2019-05-10T23:30:07.964Z,1007.57
2019-05-10T23:31:07.882Z,1007.64
2019-05-10T23:32:07.868Z,1007.69
2019-05-10T23:33:07.858Z,1007.76
2019-05-10T23:34:07.859Z,1007.76
2019-05-10T23:35:07.828Z,1007.80
2019-05-10T23:36:07.890Z,1007.84
2019-05-10T23:37:07.830Z,1007.84
2019-05-10T23:38:07.792Z,1007.79
2019-05-10T23:39:07.825Z,1007.76